Current Conditions
Partly Cloudy
Conditions



Pressure
29.97 (inHG) - 1014.9 (mb)
Visibility

10.0 (mimiles) - 16.1 (km)
   Temperature
81  °F
27°C
63  °F
Dewpoint
54  %
 Humidity
   Wind Speed
8  mph
7  kts
13  km/h
3.6  m/s
   Wind Direction
 170°
Due South
   Airport Data
KDWH
Location David Wayne Hooks Memorial Airport 4.4 mi (7.08 km)
Metar :KDWH 142253Z 17007G17KT 10SM FEW042 27/17 A2997 RMK AO2 SLP145 T02720172 $
Sun 14th April 17:53 pm
   Raw Metar Info
Raw METAR is the most common format in the world for the transmission of observational weather data. It is highly standardized through the International Civil Aviation Organization (ICAO), which allows it to be understood throughout most of the world.
   API Info
Data Provided by
https://www.checkwx.com/weather/KDWH
   © Info
CSS/SVG/PHP scripts were developed by weather34.com for use in the weather34 template © 2015-2024

Guide Info provided by Metar-Wikipedia